sensor_id;sensor_type;location;lat;lon;timestamp;temperature;humidity
25200;DHT22;33094;48.782;9.162;2024-02-21T00:02:10;7.90;99.90
25200;DHT22;33094;48.782;9.162;2024-02-21T00:04:35;7.90;99.90
25200;DHT22;33094;48.782;9.162;2024-02-21T00:07:01;7.50;99.90
25200;DHT22;33094;48.782;9.162;2024-02-21T00:09:27;4.40;99.90
25200;DHT22;33094;48.782;9.162;2024-02-21T00:11:53;11.60;99.90
25200;DHT22;33094;48.782;9.162;2024-02-21T00:14:18;7.70;99.90
25200;DHT22;33094;48.782;9.162;2024-02-21T00:16:46;10.90;99.90
25200;DHT22;33094;48.782;9.162;2024-02-21T00:19:12;7.60;99.90
25200;DHT22;33094;48.782;9.162;2024-02-21T00:21:39;5.20;99.90
25200;DHT22;33094;48.782;9.162;2024-02-21T00:24:05;6.00;99.90
25200;DHT22;33094;48.782;9.162;2024-02-21T00:26:33;7.70;99.90
25200;DHT22;33094;48.782;9.162;2024-02-21T00:29:02;7.90;99.90
25200;DHT22;33094;48.782;9.162;2024-02-21T00:31:27;10.00;99.90
25200;DHT22;33094;48.782;9.162;2024-02-21T00:33:53;7.90;99.90
25200;DHT22;33094;48.782;9.162;2024-02-21T00:36:18;11.30;99.90
25200;DHT22;33094;48.782;9.162;2024-02-21T00:38:44;11.90;99.90
25200;DHT22;33094;48.782;9.162;2024-02-21T00:41:10;9.80;99.90
25200;DHT22;33094;48.782;9.162;2024-02-21T00:43:35;7.70;99.90
25200;DHT22;33094;48.782;9.162;2024-02-21T00:51:25;7.80;99.90
25200;DHT22;33094;48.782;9.162;2024-02-21T00:53:51;11.80;99.90
25200;DHT22;33094;48.782;9.162;2024-02-21T00:56:18;8.00;99.90
25200;DHT22;33094;48.782;9.162;2024-02-21T00:58:44;7.80;99.90
25200;DHT22;33094;48.782;9.162;2024-02-21T01:03:44;8.10;99.90
25200;DHT22;33094;48.782;9.162;2024-02-21T01:06:10;10.20;99.90
25200;DHT22;33094;48.782;9.162;2024-02-21T01:08:36;11.80;99.90
25200;DHT22;33094;48.782;9.162;2024-02-21T01:11:01;5.40;99.90
25200;DHT22;33094;48.782;9.162;2024-02-21T01:13:28;8.40;99.90
25200;DHT22;33094;48.782;9.162;2024-02-21T01:15:54;8.40;99.90
25200;DHT22;33094;48.782;9.162;2024-02-21T01:18:21;12.50;99.90
25200;DHT22;33094;48.782;9.162;2024-02-21T01:20:48;8.50;99.90
25200;DHT22;33094;48.782;9.162;2024-02-21T01:23:14;5.40;99.90
25200;DHT22;33094;48.782;9.162;2024-02-21T01:25:39;8.40;99.90
25200;DHT22;33094;48.782;9.162;2024-02-21T01:28:05;8.30;99.90
25200;DHT22;33094;48.782;9.162;2024-02-21T01:30:31;11.10;99.90
25200;DHT22;33094;48.782;9.162;2024-02-21T01:32:56;8.30;99.90
25200;DHT22;33094;48.782;9.162;2024-02-21T01:35:24;4.40;99.90
25200;DHT22;33094;48.782;9.162;2024-02-21T01:37:58;11.90;99.90
25200;DHT22;33094;48.782;9.162;2024-02-21T01:40:23;5.60;99.90
25200;DHT22;33094;48.782;9.162;2024-02-21T01:42:49;8.70;99.90
25200;DHT22;33094;48.782;9.162;2024-02-21T01:45:14;12.20;99.90
25200;DHT22;33094;48.782;9.162;2024-02-21T01:47:40;8.40;99.90
25200;DHT22;33094;48.782;9.162;2024-02-21T01:50:06;8.50;99.90
25200;DHT22;33094;48.782;9.162;2024-02-21T01:52:32;8.00;99.90
25200;DHT22;33094;48.782;9.162;2024-02-21T01:54:58;8.40;99.90
25200;DHT22;33094;48.782;9.162;2024-02-21T01:57:27;8.90;99.90
25200;DHT22;33094;48.782;9.162;2024-02-21T01:59:54;8.30;99.90
25200;DHT22;33094;48.782;9.162;2024-02-21T02:02:20;7.90;99.90
25200;DHT22;33094;48.782;9.162;2024-02-21T02:04:46;8.30;99.90
25200;DHT22;33094;48.782;9.162;2024-02-21T02:07:11;10.40;99.90
25200;DHT22;33094;48.782;9.162;2024-02-21T02:09:37;8.10;99.90
25200;DHT22;33094;48.782;9.162;2024-02-21T02:12:02;4.40;99.90
25200;DHT22;33094;48.782;9.162;2024-02-21T02:14:28;8.50;99.90
25200;DHT22;33094;48.782;9.162;2024-02-21T02:16:54;10.10;99.90
25200;DHT22;33094;48.782;9.162;2024-02-21T02:19:19;8.70;99.90
25200;DHT22;33094;48.782;9.162;2024-02-21T02:21:46;5.60;99.90
25200;DHT22;33094;48.782;9.162;2024-02-21T02:24:13;10.90;99.90
25200;DHT22;33094;48.782;9.162;2024-02-21T02:26:39;8.30;99.90
25200;DHT22;33094;48.782;9.162;2024-02-21T02:29:05;11.70;99.90
25200;DHT22;33094;48.782;9.162;2024-02-21T02:31:30;8.10;99.90
25200;DHT22;33094;48.782;9.162;2024-02-21T02:33:56;8.60;99.90
25200;DHT22;33094;48.782;9.162;2024-02-21T02:36:22;12.20;99.90
25200;DHT22;33094;48.782;9.162;2024-02-21T02:38:47;8.40;99.90
25200;DHT22;33094;48.782;9.162;2024-02-21T02:41:13;11.30;99.90
25200;DHT22;33094;48.782;9.162;2024-02-21T02:43:38;8.30;99.90
25200;DHT22;33094;48.782;9.162;2024-02-21T02:46:04;11.20;99.90
25200;DHT22;33094;48.782;9.162;2024-02-21T02:48:29;8.40;99.90
25200;DHT22;33094;48.782;9.162;2024-02-21T02:50:55;8.20;99.90
25200;DHT22;33094;48.782;9.162;2024-02-21T02:53:21;11.10;99.90
25200;DHT22;33094;48.782;9.162;2024-02-21T02:55:46;11.80;99.90
25200;DHT22;33094;48.782;9.162;2024-02-21T02:58:12;8.10;99.90
25200;DHT22;33094;48.782;9.162;2024-02-21T03:00:37;8.00;99.90
25200;DHT22;33094;48.782;9.162;2024-02-21T03:03:04;10.20;99.90
25200;DHT22;33094;48.782;9.162;2024-02-21T03:05:30;10.90;99.90
25200;DHT22;33094;48.782;9.162;2024-02-21T03:07:55;12.40;99.90
25200;DHT22;33094;48.782;9.162;2024-02-21T03:10:34;8.30;99.90
25200;DHT22;33094;48.782;9.162;2024-02-21T03:13:00;8.30;99.90
25200;DHT22;33094;48.782;9.162;2024-02-21T03:15:28;10.80;99.90
25200;DHT22;33094;48.782;9.162;2024-02-21T03:17:55;8.00;99.90
25200;DHT22;33094;48.782;9.162;2024-02-21T03:20:23;7.70;99.90
25200;DHT22;33094;48.782;9.162;2024-02-21T03:22:48;8.00;99.90
25200;DHT22;33094;48.782;9.162;2024-02-21T03:25:14;12.10;99.90
25200;DHT22;33094;48.782;9.162;2024-02-21T03:27:40;7.70;99.90
25200;DHT22;33094;48.782;9.162;2024-02-21T03:30:06;11.80;99.90
25200;DHT22;33094;48.782;9.162;2024-02-21T03:32:33;7.90;99.90
25200;DHT22;33094;48.782;9.162;2024-02-21T03:34:58;9.60;99.90
25200;DHT22;33094;48.782;9.162;2024-02-21T03:37:24;8.20;99.90
25200;DHT22;33094;48.782;9.162;2024-02-21T03:39:49;11.90;99.90
25200;DHT22;33094;48.782;9.162;2024-02-21T03:42:15;11.30;99.90
25200;DHT22;33094;48.782;9.162;2024-02-21T03:44:42;7.30;99.90
25200;DHT22;33094;48.782;9.162;2024-02-21T03:47:07;7.50;99.90
25200;DHT22;33094;48.782;9.162;2024-02-21T03:49:35;8.00;99.90
25200;DHT22;33094;48.782;9.162;2024-02-21T03:52:01;7.80;99.90
25200;DHT22;33094;48.782;9.162;2024-02-21T03:54:27;7.90;99.90
25200;DHT22;33094;48.782;9.162;2024-02-21T03:56:52;8.70;99.90
25200;DHT22;33094;48.782;9.162;2024-02-21T03:59:18;8.00;99.90
25200;DHT22;33094;48.782;9.162;2024-02-21T04:01:43;8.00;99.90
25200;DHT22;33094;48.782;9.162;2024-02-21T04:04:09;11.60;99.90
25200;DHT22;33094;48.782;9.162;2024-02-21T04:06:35;8.10;99.90
25200;DHT22;33094;48.782;9.162;2024-02-21T04:09:00;10.40;99.90
25200;DHT22;33094;48.782;9.162;2024-02-21T04:11:26;8.00;99.90
25200;DHT22;33094;48.782;9.162;2024-02-21T04:13:52;7.90;99.90
25200;DHT22;33094;48.782;9.162;2024-02-21T04:16:17;10.60;99.90
25200;DHT22;33094;48.782;9.162;2024-02-21T04:18:43;9.10;99.90
25200;DHT22;33094;48.782;9.162;2024-02-21T04:21:09;11.00;99.90
25200;DHT22;33094;48.782;9.162;2024-02-21T04:23:38;12.30;99.90
25200;DHT22;33094;48.782;9.162;2024-02-21T04:26:05;8.20;99.90
25200;DHT22;33094;48.782;9.162;2024-02-21T04:28:33;8.00;99.90
25200;DHT22;33094;48.782;9.162;2024-02-21T04:30:58;7.60;99.90
25200;DHT22;33094;48.782;9.162;2024-02-21T04:33:24;8.50;99.90
25200;DHT22;33094;48.782;9.162;2024-02-21T04:35:49;11.80;99.90
25200;DHT22;33094;48.782;9.162;2024-02-21T04:38:15;10.30;99.90
25200;DHT22;33094;48.782;9.162;2024-02-21T04:40:41;7.80;99.90
25200;DHT22;33094;48.782;9.162;2024-02-21T04:43:06;4.50;99.90
25200;DHT22;33094;48.782;9.162;2024-02-21T04:45:32;10.80;99.90
25200;DHT22;33094;48.782;9.162;2024-02-21T04:47:58;7.70;99.90
25200;DHT22;33094;48.782;9.162;2024-02-21T04:50:23;11.50;99.90
25200;DHT22;33094;48.782;9.162;2024-02-21T04:52:51;7.80;99.90
25200;DHT22;33094;48.782;9.162;2024-02-21T04:55:17;8.30;99.90
25200;DHT22;33094;48.782;9.162;2024-02-21T04:57:42;7.70;99.90
25200;DHT22;33094;48.782;9.162;2024-02-21T05:00:08;10.30;99.90
25200;DHT22;33094;48.782;9.162;2024-02-21T05:02:34;7.40;99.90
25200;DHT22;33094;48.782;9.162;2024-02-21T05:05:00;8.00;99.90
25200;DHT22;33094;48.782;9.162;2024-02-21T05:07:25;7.70;99.90
25200;DHT22;33094;48.782;9.162;2024-02-21T05:09:53;9.60;99.90
25200;DHT22;33094;48.782;9.162;2024-02-21T05:12:18;7.50;99.90
25200;DHT22;33094;48.782;9.162;2024-02-21T05:14:44;7.50;99.90
25200;DHT22;33094;48.782;9.162;2024-02-21T05:17:09;9.70;99.90
25200;DHT22;33094;48.782;9.162;2024-02-21T05:19:35;7.90;99.90
25200;DHT22;33094;48.782;9.162;2024-02-21T05:22:00;7.50;99.90
25200;DHT22;33094;48.782;9.162;2024-02-21T05:24:26;7.10;99.90
25200;DHT22;33094;48.782;9.162;2024-02-21T05:26:51;7.00;99.90
25200;DHT22;33094;48.782;9.162;2024-02-21T05:29:17;7.40;99.90
25200;DHT22;33094;48.782;9.162;2024-02-21T05:32:03;9.00;99.90
25200;DHT22;33094;48.782;9.162;2024-02-21T05:34:28;7.50;99.90
25200;DHT22;33094;48.782;9.162;2024-02-21T05:36:54;10.80;99.90
25200;DHT22;33094;48.782;9.162;2024-02-21T05:39:19;7.40;99.90
25200;DHT22;33094;48.782;9.162;2024-02-21T05:41:47;9.80;99.90
25200;DHT22;33094;48.782;9.162;2024-02-21T05:44:13;11.90;99.90
25200;DHT22;33094;48.782;9.162;2024-02-21T05:46:38;10.50;99.90
25200;DHT22;33094;48.782;9.162;2024-02-21T05:49:04;10.90;99.90
25200;DHT22;33094;48.782;9.162;2024-02-21T05:51:35;7.70;99.90
25200;DHT22;33094;48.782;9.162;2024-02-21T05:54:01;7.60;99.90
25200;DHT22;33094;48.782;9.162;2024-02-21T05:56:26;7.70;99.90
25200;DHT22;33094;48.782;9.162;2024-02-21T05:58:52;11.10;99.90
25200;DHT22;33094;48.782;9.162;2024-02-21T06:01:20;11.20;99.90
25200;DHT22;33094;48.782;9.162;2024-02-21T06:03:47;7.80;99.90
25200;DHT22;33094;48.782;9.162;2024-02-21T06:06:12;8.00;99.90
25200;DHT22;33094;48.782;9.162;2024-02-21T06:08:39;10.00;99.90
25200;DHT22;33094;48.782;9.162;2024-02-21T06:11:05;8.50;99.90
25200;DHT22;33094;48.782;9.162;2024-02-21T06:13:31;7.90;99.90
25200;DHT22;33094;48.782;9.162;2024-02-21T06:15:59;7.50;99.90
25200;DHT22;33094;48.782;9.162;2024-02-21T06:18:24;7.60;99.90
25200;DHT22;33094;48.782;9.162;2024-02-21T06:20:52;11.90;99.90
25200;DHT22;33094;48.782;9.162;2024-02-21T06:23:18;7.30;99.90
25200;DHT22;33094;48.782;9.162;2024-02-21T06:28:55;9.10;99.90
25200;DHT22;33094;48.782;9.162;2024-02-21T06:31:41;3.50;99.90
25200;DHT22;33094;48.782;9.162;2024-02-21T06:34:06;10.10;99.90
25200;DHT22;33094;48.782;9.162;2024-02-21T06:36:35;11.00;99.90
25200;DHT22;33094;48.782;9.162;2024-02-21T06:39:03;10.90;99.90
25200;DHT22;33094;48.782;9.162;2024-02-21T06:41:32;10.20;99.90
25200;DHT22;33094;48.782;9.162;2024-02-21T06:44:07;7.70;99.90
25200;DHT22;33094;48.782;9.162;2024-02-21T06:46:40;10.20;99.90
25200;DHT22;33094;48.782;9.162;2024-02-21T06:49:14;11.50;99.90
25200;DHT22;33094;48.782;9.162;2024-02-21T06:51:43;8.60;99.90
25200;DHT22;33094;48.782;9.162;2024-02-21T06:54:09;7.00;99.90
25200;DHT22;33094;48.782;9.162;2024-02-21T06:59:47;7.30;99.90
25200;DHT22;33094;48.782;9.162;2024-02-21T07:02:13;7.60;99.90
25200;DHT22;33094;48.782;9.162;2024-02-21T07:07:45;11.00;99.90
25200;DHT22;33094;48.782;9.162;2024-02-21T07:23:06;11.80;99.90
25200;DHT22;33094;48.782;9.162;2024-02-21T07:28:58;4.30;99.90
25200;DHT22;33094;48.782;9.162;2024-02-21T07:34:30;4.20;99.90
25200;DHT22;33094;48.782;9.162;2024-02-21T07:39:39;7.90;99.90
25200;DHT22;33094;48.782;9.162;2024-02-21T07:42:22;7.90;99.90
25200;DHT22;33094;48.782;9.162;2024-02-21T07:44:51;7.90;99.90
25200;DHT22;33094;48.782;9.162;2024-02-21T07:47:30;7.80;99.90
25200;DHT22;33094;48.782;9.162;2024-02-21T10:22:04;11.40;99.90
25200;DHT22;33094;48.782;9.162;2024-02-21T10:24:30;11.70;99.90
25200;DHT22;33094;48.782;9.162;2024-02-21T10:27:09;11.80;99.90
25200;DHT22;33094;48.782;9.162;2024-02-21T10:29:38;12.20;99.90
25200;DHT22;33094;48.782;9.162;2024-02-21T10:32:07;12.90;99.90
25200;DHT22;33094;48.782;9.162;2024-02-21T10:34:33;12.80;99.90
25200;DHT22;33094;48.782;9.162;2024-02-21T10:37:00;12.70;99.90
25200;DHT22;33094;48.782;9.162;2024-02-21T10:39:26;15.40;99.90
25200;DHT22;33094;48.782;9.162;2024-02-21T10:41:51;12.90;99.90
25200;DHT22;33094;48.782;9.162;2024-02-21T10:44:17;13.20;99.90
25200;DHT22;33094;48.782;9.162;2024-02-21T10:46:43;13.60;99.90
25200;DHT22;33094;48.782;9.162;2024-02-21T10:49:13;13.20;99.90
25200;DHT22;33094;48.782;9.162;2024-02-21T10:51:43;12.50;99.90
25200;DHT22;33094;48.782;9.162;2024-02-21T10:54:19;15.10;99.90
25200;DHT22;33094;48.782;9.162;2024-02-21T10:56:48;12.80;99.90
25200;DHT22;33094;48.782;9.162;2024-02-21T10:59:15;12.80;99.90
25200;DHT22;33094;48.782;9.162;2024-02-21T11:01:41;13.40;99.90
25200;DHT22;33094;48.782;9.162;2024-02-21T11:04:07;13.20;99.90
25200;DHT22;33094;48.782;9.162;2024-02-21T11:06:34;13.30;99.60
25200;DHT22;33094;48.782;9.162;2024-02-21T11:09:01;13.70;99.60
25200;DHT22;33094;48.782;9.162;2024-02-21T11:11:28;12.90;99.80
25200;DHT22;33094;48.782;9.162;2024-02-21T11:14:03;12.50;99.90
25200;DHT22;33094;48.782;9.162;2024-02-21T11:16:34;13.10;99.90
25200;DHT22;33094;48.782;9.162;2024-02-21T11:21:35;12.90;99.90
25200;DHT22;33094;48.782;9.162;2024-02-21T11:24:04;13.60;99.20
25200;DHT22;33094;48.782;9.162;2024-02-21T11:26:30;13.80;99.50
25200;DHT22;33094;48.782;9.162;2024-02-21T11:34:56;13.30;99.20
25200;DHT22;33094;48.782;9.162;2024-02-21T11:37:23;13.30;98.70
25200;DHT22;33094;48.782;9.162;2024-02-21T11:39:49;13.30;99.30
25200;DHT22;33094;48.782;9.162;2024-02-21T11:42:15;12.60;99.90
25200;DHT22;33094;48.782;9.162;2024-02-21T11:44:42;12.40;99.90
25200;DHT22;33094;48.782;9.162;2024-02-21T11:47:08;12.50;99.00
25200;DHT22;33094;48.782;9.162;2024-02-21T11:49:43;13.10;99.70
25200;DHT22;33094;48.782;9.162;2024-02-21T11:52:10;13.30;99.20
25200;DHT22;33094;48.782;9.162;2024-02-21T11:54:36;12.10;98.30
25200;DHT22;33094;48.782;9.162;2024-02-21T11:57:01;15.70;98.90
25200;DHT22;33094;48.782;9.162;2024-02-21T11:59:31;13.20;98.20
25200;DHT22;33094;48.782;9.162;2024-02-21T12:01:59;13.70;97.60
25200;DHT22;33094;48.782;9.162;2024-02-21T12:04:25;13.00;97.30
25200;DHT22;33094;48.782;9.162;2024-02-21T12:06:50;12.70;97.50
25200;DHT22;33094;48.782;9.162;2024-02-21T12:09:17;14.70;97.90
25200;DHT22;33094;48.782;9.162;2024-02-21T12:11:43;14.30;97.30
25200;DHT22;33094;48.782;9.162;2024-02-21T12:14:09;12.80;97.00
25200;DHT22;33094;48.782;9.162;2024-02-21T12:16:42;12.60;96.60
25200;DHT22;33094;48.782;9.162;2024-02-21T12:19:12;12.80;96.90
25200;DHT22;33094;48.782;9.162;2024-02-21T12:21:56;13.20;97.90
25200;DHT22;33094;48.782;9.162;2024-02-21T12:24:23;11.10;95.90
25200;DHT22;33094;48.782;9.162;2024-02-21T12:26:49;13.10;96.90
25200;DHT22;33094;48.782;9.162;2024-02-21T12:29:15;15.40;97.80
25200;DHT22;33094;48.782;9.162;2024-02-21T12:31:41;15.60;97.30
25200;DHT22;33094;48.782;9.162;2024-02-21T12:34:06;14.40;96.30
25200;DHT22;33094;48.782;9.162;2024-02-21T12:36:32;14.10;96.00
25200;DHT22;33094;48.782;9.162;2024-02-21T12:39:10;14.30;95.30
25200;DHT22;33094;48.782;9.162;2024-02-21T12:41:36;11.10;93.30
25200;DHT22;33094;48.782;9.162;2024-02-21T12:44:06;14.60;95.00
25200;DHT22;33094;48.782;9.162;2024-02-21T12:46:37;14.30;94.10
25200;DHT22;33094;48.782;9.162;2024-02-21T12:49:03;13.70;95.00
25200;DHT22;33094;48.782;9.162;2024-02-21T12:51:29;13.90;94.70
25200;DHT22;33094;48.782;9.162;2024-02-21T12:53:55;13.70;94.30
25200;DHT22;33094;48.782;9.162;2024-02-21T12:56:26;12.90;94.30
25200;DHT22;33094;48.782;9.162;2024-02-21T12:58:56;13.60;94.40
25200;DHT22;33094;48.782;9.162;2024-02-21T13:01:22;13.30;94.40
25200;DHT22;33094;48.782;9.162;2024-02-21T13:03:48;13.30;94.80
25200;DHT22;33094;48.782;9.162;2024-02-21T13:06:13;13.80;95.40
25200;DHT22;33094;48.782;9.162;2024-02-21T13:08:39;13.90;95.50
25200;DHT22;33094;48.782;9.162;2024-02-21T13:11:05;18.30;96.50
25200;DHT22;33094;48.782;9.162;2024-02-21T13:13:31;13.40;94.60
25200;DHT22;33094;48.782;9.162;2024-02-21T13:15:57;13.30;94.60
25200;DHT22;33094;48.782;9.162;2024-02-21T13:18:22;13.70;95.10
25200;DHT22;33094;48.782;9.162;2024-02-21T13:23:43;11.00;93.00
25200;DHT22;33094;48.782;9.162;2024-02-21T13:26:12;13.50;95.00
25200;DHT22;33094;48.782;9.162;2024-02-21T13:28:38;13.30;94.70
25200;DHT22;33094;48.782;9.162;2024-02-21T13:31:03;13.50;94.80
25200;DHT22;33094;48.782;9.162;2024-02-21T13:33:29;13.90;94.90
25200;DHT22;33094;48.782;9.162;2024-02-21T13:35:54;13.70;94.90
25200;DHT22;33094;48.782;9.162;2024-02-21T13:38:20;10.10;93.90
25200;DHT22;33094;48.782;9.162;2024-02-21T13:40:46;14.00;94.20
25200;DHT22;33094;48.782;9.162;2024-02-21T13:43:11;10.00;93.30
25200;DHT22;33094;48.782;9.162;2024-02-21T13:45:37;10.10;93.50
25200;DHT22;33094;48.782;9.162;2024-02-21T13:48:03;10.70;92.90
25200;DHT22;33094;48.782;9.162;2024-02-21T13:50:31;13.30;93.70
25200;DHT22;33094;48.782;9.162;2024-02-21T13:52:57;13.60;93.90
25200;DHT22;33094;48.782;9.162;2024-02-21T13:55:26;13.90;94.60
25200;DHT22;33094;48.782;9.162;2024-02-21T13:57:51;17.90;94.30
25200;DHT22;33094;48.782;9.162;2024-02-21T14:00:17;13.40;93.70
25200;DHT22;33094;48.782;9.162;2024-02-21T14:02:43;13.60;94.10
25200;DHT22;33094;48.782;9.162;2024-02-21T14:05:09;14.50;94.60
25200;DHT22;33094;48.782;9.162;2024-02-21T14:07:35;13.40;93.80
25200;DHT22;33094;48.782;9.162;2024-02-21T14:10:01;13.70;95.10
25200;DHT22;33094;48.782;9.162;2024-02-21T14:12:26;13.30;94.00
25200;DHT22;33094;48.782;9.162;2024-02-21T14:14:52;13.40;92.70
25200;DHT22;33094;48.782;9.162;2024-02-21T14:17:18;13.30;92.90
25200;DHT22;33094;48.782;9.162;2024-02-21T14:19:43;13.40;93.60
25200;DHT22;33094;48.782;9.162;2024-02-21T14:22:09;13.40;92.80
25200;DHT22;33094;48.782;9.162;2024-02-21T14:24:36;13.40;93.10
25200;DHT22;33094;48.782;9.162;2024-02-21T14:27:02;13.40;92.40
25200;DHT22;33094;48.782;9.162;2024-02-21T14:29:28;13.50;93.40
25200;DHT22;33094;48.782;9.162;2024-02-21T14:31:54;13.40;92.80
25200;DHT22;33094;48.782;9.162;2024-02-21T14:34:20;13.50;92.50
25200;DHT22;33094;48.782;9.162;2024-02-21T14:36:45;13.30;92.60
25200;DHT22;33094;48.782;9.162;2024-02-21T14:39:11;13.40;92.80
25200;DHT22;33094;48.782;9.162;2024-02-21T14:41:36;13.50;92.90
25200;DHT22;33094;48.782;9.162;2024-02-21T14:44:02;13.60;92.80
25200;DHT22;33094;48.782;9.162;2024-02-21T14:46:28;14.40;93.00
25200;DHT22;33094;48.782;9.162;2024-02-21T14:48:57;16.30;94.00
25200;DHT22;33094;48.782;9.162;2024-02-21T14:51:22;13.70;92.20
25200;DHT22;33094;48.782;9.162;2024-02-21T14:53:48;14.70;92.00
25200;DHT22;33094;48.782;9.162;2024-02-21T14:56:14;18.20;93.30
25200;DHT22;33094;48.782;9.162;2024-02-21T14:58:41;16.30;92.20
25200;DHT22;33094;48.782;9.162;2024-02-21T15:01:07;16.40;92.50
25200;DHT22;33094;48.782;9.162;2024-02-21T15:03:32;16.70;92.10
25200;DHT22;33094;48.782;9.162;2024-02-21T15:05:58;16.30;92.40
25200;DHT22;33094;48.782;9.162;2024-02-21T15:08:23;18.00;92.90
25200;DHT22;33094;48.782;9.162;2024-02-21T15:10:49;13.50;92.00
25200;DHT22;33094;48.782;9.162;2024-02-21T15:13:15;13.50;91.90
25200;DHT22;33094;48.782;9.162;2024-02-21T15:15:41;13.60;92.10
25200;DHT22;33094;48.782;9.162;2024-02-21T15:18:06;13.60;92.40
25200;DHT22;33094;48.782;9.162;2024-02-21T15:20:32;13.50;92.60
25200;DHT22;33094;48.782;9.162;2024-02-21T15:22:57;14.50;93.00
25200;DHT22;33094;48.782;9.162;2024-02-21T15:25:24;17.70;94.10
25200;DHT22;33094;48.782;9.162;2024-02-21T15:27:50;13.50;93.20
25200;DHT22;33094;48.782;9.162;2024-02-21T15:30:16;17.40;94.70
25200;DHT22;33094;48.782;9.162;2024-02-21T15:32:41;13.40;94.00
25200;DHT22;33094;48.782;9.162;2024-02-21T15:35:10;16.40;94.90
25200;DHT22;33094;48.782;9.162;2024-02-21T15:37:39;13.40;93.80
25200;DHT22;33094;48.782;9.162;2024-02-21T15:40:06;13.50;93.70
25200;DHT22;33094;48.782;9.162;2024-02-21T15:42:35;13.50;93.40
25200;DHT22;33094;48.782;9.162;2024-02-21T15:45:00;13.50;94.00
25200;DHT22;33094;48.782;9.162;2024-02-21T15:47:27;13.50;94.20
25200;DHT22;33094;48.782;9.162;2024-02-21T15:49:52;13.70;94.30
25200;DHT22;33094;48.782;9.162;2024-02-21T15:52:18;16.30;95.20
25200;DHT22;33094;48.782;9.162;2024-02-21T15:54:44;13.50;94.30
25200;DHT22;33094;48.782;9.162;2024-02-21T15:57:09;13.50;94.80
25200;DHT22;33094;48.782;9.162;2024-02-21T15:59:35;13.40;94.40
25200;DHT22;33094;48.782;9.162;2024-02-21T16:02:00;17.60;96.90
25200;DHT22;33094;48.782;9.162;2024-02-21T16:04:26;13.30;95.70
25200;DHT22;33094;48.782;9.162;2024-02-21T16:06:54;13.40;95.70
25200;DHT22;33094;48.782;9.162;2024-02-21T16:09:20;13.30;95.70
25200;DHT22;33094;48.782;9.162;2024-02-21T16:11:46;17.30;97.00
25200;DHT22;33094;48.782;9.162;2024-02-21T16:14:13;15.70;97.00
25200;DHT22;33094;48.782;9.162;2024-02-21T16:16:38;13.40;96.80
25200;DHT22;33094;48.782;9.162;2024-02-21T16:19:06;17.60;97.20
25200;DHT22;33094;48.782;9.162;2024-02-21T16:21:31;15.50;96.90
25200;DHT22;33094;48.782;9.162;2024-02-21T16:23:57;13.40;96.50
25200;DHT22;33094;48.782;9.162;2024-02-21T16:26:22;13.40;96.40
25200;DHT22;33094;48.782;9.162;2024-02-21T16:28:48;14.40;96.90
25200;DHT22;33094;48.782;9.162;2024-02-21T16:31:13;15.40;97.30
25200;DHT22;33094;48.782;9.162;2024-02-21T16:33:39;13.10;96.80
25200;DHT22;33094;48.782;9.162;2024-02-21T16:36:05;13.10;96.80
25200;DHT22;33094;48.782;9.162;2024-02-21T16:38:32;13.00;97.00
25200;DHT22;33094;48.782;9.162;2024-02-21T16:40:58;16.00;97.80
25200;DHT22;33094;48.782;9.162;2024-02-21T16:43:25;13.00;97.00
25200;DHT22;33094;48.782;9.162;2024-02-21T16:45:50;15.30;97.90
25200;DHT22;33094;48.782;9.162;2024-02-21T16:48:16;12.80;97.40
25200;DHT22;33094;48.782;9.162;2024-02-21T16:50:42;14.30;98.00
25200;DHT22;33094;48.782;9.162;2024-02-21T16:53:07;12.90;97.60
25200;DHT22;33094;48.782;9.162;2024-02-21T16:55:33;16.80;99.30
25200;DHT22;33094;48.782;9.162;2024-02-21T16:57:59;12.80;98.40
25200;DHT22;33094;48.782;9.162;2024-02-21T17:00:26;14.70;98.50
25200;DHT22;33094;48.782;9.162;2024-02-21T17:02:51;16.60;99.20
25200;DHT22;33094;48.782;9.162;2024-02-21T17:05:17;14.00;98.80
25200;DHT22;33094;48.782;9.162;2024-02-21T17:07:45;14.40;98.90
25200;DHT22;33094;48.782;9.162;2024-02-21T17:10:10;14.50;99.00
25200;DHT22;33094;48.782;9.162;2024-02-21T17:12:36;12.70;98.60
25200;DHT22;33094;48.782;9.162;2024-02-21T17:15:05;12.70;98.60
25200;DHT22;33094;48.782;9.162;2024-02-21T17:17:31;12.70;98.50
25200;DHT22;33094;48.782;9.162;2024-02-21T17:19:56;12.70;98.70
25200;DHT22;33094;48.782;9.162;2024-02-21T17:22:22;12.50;99.00
25200;DHT22;33094;48.782;9.162;2024-02-21T17:24:47;15.50;99.90
25200;DHT22;33094;48.782;9.162;2024-02-21T17:27:13;14.10;99.60
25200;DHT22;33094;48.782;9.162;2024-02-21T17:29:38;12.50;99.30
25200;DHT22;33094;48.782;9.162;2024-02-21T17:32:04;16.50;99.90
25200;DHT22;33094;48.782;9.162;2024-02-21T17:34:29;12.40;99.30
25200;DHT22;33094;48.782;9.162;2024-02-21T17:36:56;13.20;99.20
25200;DHT22;33094;48.782;9.162;2024-02-21T17:39:23;12.50;99.00
25200;DHT22;33094;48.782;9.162;2024-02-21T17:41:48;12.50;99.10
25200;DHT22;33094;48.782;9.162;2024-02-21T17:44:18;17.00;99.90
25200;DHT22;33094;48.782;9.162;2024-02-21T17:46:44;16.00;99.90
25200;DHT22;33094;48.782;9.162;2024-02-21T17:49:09;16.20;99.90
25200;DHT22;33094;48.782;9.162;2024-02-21T17:51:35;12.50;99.30
25200;DHT22;33094;48.782;9.162;2024-02-21T17:54:01;12.60;99.20
25200;DHT22;33094;48.782;9.162;2024-02-21T17:56:26;12.60;99.30
25200;DHT22;33094;48.782;9.162;2024-02-21T17:58:52;16.30;99.90
25200;DHT22;33094;48.782;9.162;2024-02-21T18:01:17;14.70;99.90
25200;DHT22;33094;48.782;9.162;2024-02-21T18:03:43;16.30;99.90
25200;DHT22;33094;48.782;9.162;2024-02-21T18:06:09;16.70;99.90
25200;DHT22;33094;48.782;9.162;2024-02-21T18:08:34;12.70;99.60
25200;DHT22;33094;48.782;9.162;2024-02-21T18:11:00;15.20;99.90
25200;DHT22;33094;48.782;9.162;2024-02-21T18:13:25;15.30;99.90
25200;DHT22;33094;48.782;9.162;2024-02-21T18:15:52;16.60;99.90
25200;DHT22;33094;48.782;9.162;2024-02-21T18:18:17;16.80;99.90
25200;DHT22;33094;48.782;9.162;2024-02-21T18:20:43;13.90;99.40
25200;DHT22;33094;48.782;9.162;2024-02-21T18:23:08;12.40;98.90
25200;DHT22;33094;48.782;9.162;2024-02-21T18:25:34;14.60;99.50
25200;DHT22;33094;48.782;9.162;2024-02-21T18:27:59;14.50;99.20
25200;DHT22;33094;48.782;9.162;2024-02-21T18:30:25;14.20;99.10
25200;DHT22;33094;48.782;9.162;2024-02-21T18:32:50;14.80;99.00
25200;DHT22;33094;48.782;9.162;2024-02-21T18:35:16;12.40;98.30
25200;DHT22;33094;48.782;9.162;2024-02-21T18:37:43;12.30;98.00
25200;DHT22;33094;48.782;9.162;2024-02-21T18:40:09;13.80;98.30
25200;DHT22;33094;48.782;9.162;2024-02-21T18:42:41;12.40;97.70
25200;DHT22;33094;48.782;9.162;2024-02-21T18:45:07;12.40;97.20
25200;DHT22;33094;48.782;9.162;2024-02-21T18:47:33;12.50;96.60
25200;DHT22;33094;48.782;9.162;2024-02-21T18:49:59;12.60;95.70
25200;DHT22;33094;48.782;9.162;2024-02-21T18:52:25;17.20;96.80
25200;DHT22;33094;48.782;9.162;2024-02-21T18:54:51;12.60;95.40